Time;durP1;ratioP1;P1;durP2;ratioP2;P2;SDS_P1;SDS_P2;PMS_P1;PMS_P2;Temp;Humidity;BMP_temperature;BMP_pressure;BME280_temperature;BME280_humidity;BME280_pressure;Samples;Min_cycle;Max_cycle;Signal;HPM_P1;HPM_P2
2023/01/23 00:01:32;;;;;;;;;;;;;;;24.88;37.68;94914.59;4950106;28;7182;-66
2023/01/23 00:03:59;;;;;;;;;;;;;;;24.94;37.12;94921.63;4951715;28;7038;-65
2023/01/23 00:06:27;;;;;;;;;;;;;;;24.95;37.58;94927.84;4936533;29;7518;-66
2023/01/23 00:09:10;;;;;;;;;;;;;;;24.95;37.21;94914.84;4962115;28;7645;-66
2023/01/23 00:11:43;;;;;;;;;;;;;;;24.95;37.24;94914.09;4946653;29;7135;-66
2023/01/23 00:14:43;;;;;;;;;;;;;;;24.94;37.07;94907.84;4936892;29;7523;-65
2023/01/23 00:17:21;;;;;;;;;;;;;;;24.94;37.55;94912.59;4853701;29;7625;-65
2023/01/23 00:20:00;;;;;;;;;;;;;;;24.93;37.59;94906.34;4831333;29;7979;-65
2023/01/23 00:22:27;;;;;;;;;;;;;;;24.94;37.64;94912.59;4844216;29;9864;-66
2023/01/23 00:24:55;;;;;;;;;;;;;;;24.94;37.11;94907.09;4843758;29;9137;-65
2023/01/23 00:27:23;;;;;;;;;;;;;;;24.94;37.40;94904.34;4844140;29;9330;-65
2023/01/23 00:29:58;;;;;;;;;;;;;;;24.96;37.45;94910.09;4838714;29;7482;-65
2023/01/23 00:32:33;;;;;;;;;;;;;;;24.94;37.19;94913.38;4843350;29;7170;-65
2023/01/23 00:35:24;;;;;;;;;;;;;;;24.95;36.99;94908.59;4855824;29;7205;-66
2023/01/23 00:37:50;;;;;;;;;;;;;;;24.93;37.37;94911.09;4837531;29;7060;-65
2023/01/23 00:40:17;;;;;;;;;;;;;;;24.95;36.76;94908.59;4845130;29;9030;-66
2023/01/23 00:42:43;;;;;;;;;;;;;;;24.94;37.86;94913.38;4853021;29;8668;-65
2023/01/23 00:45:14;;;;;;;;;;;;;;;24.95;36.79;94914.84;4840118;29;9162;-66
2023/01/23 00:47:40;;;;;;;;;;;;;;;24.93;37.55;94911.09;4831612;29;8138;-65
2023/01/23 00:50:13;;;;;;;;;;;;;;;24.95;37.59;94908.59;4836458;29;9217;-65
2023/01/23 00:52:39;;;;;;;;;;;;;;;24.94;37.07;94907.84;4891660;28;7123;-65
2023/01/23 00:55:08;;;;;;;;;;;;;;;24.95;36.94;94906.59;4946868;28;7034;-65
2023/01/23 00:57:34;;;;;;;;;;;;;;;24.96;37.56;94897.09;4949705;28;7220;-65
2023/01/23 01:00:00;;;;;;;;;;;;;;;24.95;37.64;94894.81;4947288;28;7090;-65
2023/01/23 01:02:26;;;;;;;;;;;;;;;24.93;37.52;94894.56;4927180;28;9205;-65
2023/01/23 01:04:53;;;;;;;;;;;;;;;24.95;37.41;94903.84;4937360;28;8847;-66
2023/01/23 01:07:26;;;;;;;;;;;;;;;24.94;37.52;94901.59;4938951;28;8315;-65
2023/01/23 01:10:00;;;;;;;;;;;;;;;24.96;36.76;94915.63;4957571;28;9813;-65
2023/01/23 01:12:26;;;;;;;;;;;;;;;24.97;37.55;94917.13;4939521;28;7510;-65
2023/01/23 01:14:53;;;;;;;;;;;;;;;24.97;36.77;94911.63;4961874;28;9035;-65
2023/01/23 01:17:24;;;;;;;;;;;;;;;24.97;37.05;94917.84;4938538;28;7349;-65
2023/01/23 01:19:51;;;;;;;;;;;;;;;24.97;37.67;94928.13;4950818;28;7124;-65
2023/01/23 01:22:22;;;;;;;;;;;;;;;24.90;37.29;94915.59;4930190;28;7281;-65
2023/01/23 01:24:50;;;;;;;;;;;;;;;24.97;37.41;94919.88;4962718;28;7096;-65
2023/01/23 01:27:28;;;;;;;;;;;;;;;24.97;37.38;94922.63;4940342;28;7512;-65
2023/01/23 01:30:08;;;;;;;;;;;;;;;24.98;36.77;94913.13;4955937;28;9718;-65
2023/01/23 01:32:40;;;;;;;;;;;;;;;24.98;37.39;94910.38;4932828;28;7449;-65
2023/01/23 01:35:12;;;;;;;;;;;;;;;24.98;37.74;94913.13;4952607;28;7505;-65
2023/01/23 01:37:42;;;;;;;;;;;;;;;24.98;37.52;94924.13;4929000;29;7326;-65
2023/01/23 01:40:30;;;;;;;;;;;;;;;24.98;37.45;94924.13;4937422;28;7047;-65
2023/01/23 01:43:01;;;;;;;;;;;;;;;24.97;36.78;94920.63;4956667;28;7135;-65
2023/01/23 01:46:15;;;;;;;;;;;;;;;24.97;37.89;94914.38;4939447;28;8916;-65
2023/01/23 01:48:49;;;;;;;;;;;;;;;24.96;37.64;94912.84;4937404;28;8989;-65
2023/01/23 01:51:39;;;;;;;;;;;;;;;24.97;37.21;94906.13;4936669;28;7054;-65
2023/01/23 01:55:01;;;;;;;;;;;;;;;24.97;36.98;94906.13;4936406;28;9004;-65
2023/01/23 01:57:43;;;;;;;;;;;;;;;24.96;37.80;94910.09;4954292;28;7333;-65
2023/01/23 02:00:18;;;;;;;;;;;;;;;24.95;36.85;94903.84;4939744;28;7034;-66
2023/01/23 02:03:00;;;;;;;;;;;;;;;24.97;37.06;94900.63;4935804;28;9120;-65
2023/01/23 02:05:44;;;;;;;;;;;;;;;24.96;37.25;94915.63;4948472;28;8877;-66
2023/01/23 02:08:44;;;;;;;;;;;;;;;24.98;37.65;94910.38;4946688;28;8464;-65
2023/01/23 02:11:24;;;;;;;;;;;;;;;24.95;37.01;94897.59;4949118;28;8619;-66
2023/01/23 02:14:05;;;;;;;;;;;;;;;24.96;37.48;94908.13;4955404;28;9337;-65
2023/01/23 02:16:49;;;;;;;;;;;;;;;24.96;37.04;94908.13;4954334;28;9135;-66
2023/01/23 02:19:44;;;;;;;;;;;;;;;24.97;37.12;94908.88;4956493;28;7310;-65
2023/01/23 02:22:32;;;;;;;;;;;;;;;24.97;37.10;94900.63;4951367;28;6994;-65
2023/01/23 02:25:25;;;;;;;;;;;;;;;24.97;37.69;94901.34;4951774;28;7249;-65
2023/01/23 02:28:15;;;;;;;;;;;;;;;24.99;37.49;94909.13;4954893;28;8732;-65
2023/01/23 02:30:45;;;;;;;;;;;;;;;24.98;37.20;94899.34;4938898;28;7903;-65
2023/01/23 02:33:23;;;;;;;;;;;;;;;24.99;37.46;94898.13;4935157;28;8606;-65
2023/01/23 02:35:49;;;;;;;;;;;;;;;24.98;37.23;94900.13;4938648;28;7108;-65
2023/01/23 02:38:25;;;;;;;;;;;;;;;24.98;37.03;94889.09;4935558;28;8791;-66
2023/01/23 02:41:02;;;;;;;;;;;;;;;24.99;36.76;94890.59;4954742;28;7215;-65
2023/01/23 02:43:37;;;;;;;;;;;;;;;24.97;37.49;94895.84;4937844;28;7268;-65
2023/01/23 02:46:19;;;;;;;;;;;;;;;24.97;37.34;94889.63;4937509;28;8387;-65
2023/01/23 02:48:47;;;;;;;;;;;;;;;24.98;37.23;94891.84;4938365;28;7257;-65
2023/01/23 02:51:24;;;;;;;;;;;;;;;24.99;37.30;94887.13;4954067;28;8816;-65
2023/01/23 02:53:52;;;;;;;;;;;;;;;24.95;36.93;94886.56;4958000;28;9068;-65
2023/01/23 02:56:28;;;;;;;;;;;;;;;25.00;37.32;94894.09;4934793;28;7118;-65
2023/01/23 03:01:38;;;;;;;;;;;;;;;24.97;36.98;94893.09;4950909;28;7091;-65
2023/01/23 03:04:05;;;;;;;;;;;;;;;25.00;36.65;94891.34;4951873;28;7059;-65
2023/01/23 03:07:07;;;;;;;;;;;;;;;25.00;37.17;94899.59;4954898;28;6896;-65
2023/01/23 03:09:54;;;;;;;;;;;;;;;24.99;36.85;94892.63;4930345;29;8523;-65
2023/01/23 03:12:23;;;;;;;;;;;;;;;24.99;36.82;94896.09;4926879;29;7815;-65
2023/01/23 03:14:53;;;;;;;;;;;;;;;25.00;37.15;94907.88;4932666;29;7042;-65
2023/01/23 03:17:24;;;;;;;;;;;;;;;24.99;37.76;94900.88;4915474;29;7054;-66
2023/01/23 03:20:22;;;;;;;;;;;;;;;25.00;37.59;94900.38;4916742;29;9146;-66
2023/01/23 03:23:19;;;;;;;;;;;;;;;25.00;36.71;94902.38;4902974;29;7466;-65
2023/01/23 03:25:47;;;;;;;;;;;;;;;24.99;37.38;94898.13;4852665;29;7525;-66
2023/01/23 03:31:27;;;;;;;;;;;;;;;24.99;37.51;94898.13;4873711;29;9236;-66
2023/01/23 03:33:58;;;;;;;;;;;;;;;25.00;36.68;94891.34;4870748;29;7390;-66
2023/01/23 03:36:25;;;;;;;;;;;;;;;24.99;36.72;94892.63;4861808;29;9394;-66
2023/01/23 03:42:06;;;;;;;;;;;;;;;24.98;37.04;94883.59;4876822;29;7408;-66
2023/01/23 03:44:44;;;;;;;;;;;;;;;24.97;37.46;94887.59;4856793;29;7574;-65
2023/01/23 03:47:43;;;;;;;;;;;;;;;24.98;37.47;94891.09;4856830;29;7135;-65
2023/01/23 03:50:25;;;;;;;;;;;;;;;24.98;36.89;94885.59;4843110;29;9233;-65
2023/01/23 03:52:55;;;;;;;;;;;;;;;24.95;37.10;94881.84;4842769;29;9033;-65
2023/01/23 03:56:08;;;;;;;;;;;;;;;24.98;37.11;94886.34;4819013;29;7184;-65
2023/01/23 03:58:34;;;;;;;;;;;;;;;24.98;37.41;94886.34;4837790;29;9402;-66
2023/01/23 04:01:04;;;;;;;;;;;;;;;24.99;37.52;94881.59;4823996;29;7279;-66
2023/01/23 04:03:33;;;;;;;;;;;;;;;24.99;37.21;94882.34;4869570;29;8886;-65
2023/01/23 04:06:01;;;;;;;;;;;;;;;25.01;36.86;94887.38;4875462;29;8779;-66
2023/01/23 04:08:30;;;;;;;;;;;;;;;25.02;37.67;94894.38;4858405;29;7270;-66
2023/01/23 04:11:09;;;;;;;;;;;;;;;25.00;37.19;94894.88;4872939;29;8101;-66
2023/01/23 04:13:37;;;;;;;;;;;;;;;25.01;36.92;94890.13;4856466;29;7282;-65
2023/01/23 04:16:05;;;;;;;;;;;;;;;24.99;37.62;94884.38;4861913;29;7015;-66
2023/01/23 04:18:32;;;;;;;;;;;;;;;25.00;36.69;94883.09;4848637;29;7275;-66
2023/01/23 04:21:00;;;;;;;;;;;;;;;25.01;37.44;94884.63;4856856;29;9207;-66
2023/01/23 04:23:31;;;;;;;;;;;;;;;25.00;37.71;94883.84;4871370;29;7073;-66
2023/01/23 04:25:57;;;;;;;;;;;;;;;25.02;37.05;94886.09;4886733;29;7289;-66
2023/01/23 04:28:24;;;;;;;;;;;;;;;25.00;36.72;94883.09;4949778;28;9049;-66
2023/01/23 04:30:52;;;;;;;;;;;;;;;25.02;37.42;94886.09;4942347;29;8991;-66
2023/01/23 04:33:19;;;;;;;;;;;;;;;25.03;37.23;94898.63;4945854;29;8988;-66
2023/01/23 04:35:53;;;;;;;;;;;;;;;25.02;37.17;94888.84;4933992;29;9074;-66
2023/01/23 04:38:23;;;;;;;;;;;;;;;25.02;36.72;94886.09;4952888;28;7248;-66
2023/01/23 04:40:56;;;;;;;;;;;;;;;25.01;37.26;94879.13;4939173;29;9084;-66
2023/01/23 04:43:29;;;;;;;;;;;;;;;24.99;37.54;94889.88;4948799;29;7056;-66
2023/01/23 04:45:56;;;;;;;;;;;;;;;25.02;36.67;94877.84;4935628;29;9393;-65
2023/01/23 04:48:23;;;;;;;;;;;;;;;25.01;37.61;94881.88;4952052;28;7103;-65
2023/01/23 04:50:53;;;;;;;;;;;;;;;25.00;36.67;94881.09;4948729;29;7501;-66
2023/01/23 04:53:18;;;;;;;;;;;;;;;25.01;36.92;94879.13;4927791;29;9162;-66
2023/01/23 04:55:48;;;;;;;;;;;;;;;25.01;37.27;94879.13;4950420;29;9138;-66
2023/01/23 04:58:18;;;;;;;;;;;;;;;24.99;37.36;94882.34;4947057;28;9056;-66
2023/01/23 05:00:45;;;;;;;;;;;;;;;25.00;36.97;94880.34;4953718;28;9158;-65
2023/01/23 05:03:12;;;;;;;;;;;;;;;25.00;37.55;94877.59;4948234;28;8612;-65
2023/01/23 05:06:05;;;;;;;;;;;;;;;25.00;37.37;94886.63;4951812;28;7273;-66
2023/01/23 05:08:31;;;;;;;;;;;;;;;24.99;37.38;94876.84;4881973;29;7151;-66
2023/01/23 05:10:57;;;;;;;;;;;;;;;25.02;37.45;94880.59;4894130;29;9378;-65
2023/01/23 05:13:23;;;;;;;;;;;;;;;25.02;37.42;94886.09;4877684;29;7422;-65
2023/01/23 05:15:51;;;;;;;;;;;;;;;25.01;37.52;94879.84;4875684;29;7027;-66
2023/01/23 05:18:17;;;;;;;;;;;;;;;25.02;37.42;94878.59;4888342;29;9128;-65
2023/01/23 05:20:43;;;;;;;;;;;;;;;25.03;36.92;94873.88;4892540;29;7000;-65
2023/01/23 05:23:10;;;;;;;;;;;;;;;25.01;37.82;94879.84;4890654;29;7020;-65
2023/01/23 05:25:36;;;;;;;;;;;;;;;25.04;37.67;94891.88;4874796;29;7925;-65
2023/01/23 05:28:02;;;;;;;;;;;;;;;25.04;37.56;94891.88;4876377;29;7213;-65
2023/01/23 05:30:28;;;;;;;;;;;;;;;25.03;36.86;94899.41;4884821;29;9520;-65
2023/01/23 05:33:03;;;;;;;;;;;;;;;25.04;37.19;94900.13;4873885;29;7429;-65
2023/01/23 05:35:38;;;;;;;;;;;;;;;25.01;37.22;94887.38;4890949;29;8716;-65
2023/01/23 05:38:33;;;;;;;;;;;;;;;25.07;38.50;94890.88;4877993;29;9105;-65
2023/01/23 05:41:11;;;;;;;;;;;;;;;25.06;38.32;94895.63;4890124;29;7474;-65
2023/01/23 05:43:48;;;;;;;;;;;;;;;25.07;37.27;94905.41;4881419;29;8747;-66
2023/01/23 05:46:16;;;;;;;;;;;;;;;25.04;37.38;94902.88;4936929;28;7534;-66
2023/01/23 05:49:18;;;;;;;;;;;;;;;25.05;37.64;94913.41;4952808;28;9423;-66
2023/01/23 05:52:14;;;;;;;;;;;;;;;25.03;38.27;94912.41;4874872;29;7383;-66
2023/01/23 05:54:50;;;;;;;;;;;;;;;25.01;37.84;94907.38;4837726;29;9085;-66
2023/01/23 05:57:34;;;;;;;;;;;;;;;25.05;38.53;94912.66;4840096;29;9013;-65
2023/01/23 06:00:01;;;;;;;;;;;;;;;25.02;38.52;94916.38;4824375;29;7041;-65
2023/01/23 06:02:26;;;;;;;;;;;;;;;25.03;38.23;94920.66;4830245;29;8902;-66
2023/01/23 06:04:56;;;;;;;;;;;;;;;25.02;39.42;94910.88;4815527;29;7296;-66
2023/01/23 06:07:25;;;;;;;;;;;;;;;25.04;38.64;94913.88;4839738;29;8881;-66
2023/01/23 06:09:52;;;;;;;;;;;;;;;25.03;38.47;94912.41;4812037;29;8798;-66
2023/01/23 06:12:37;;;;;;;;;;;;;;;25.08;38.85;94914.41;4816800;29;7018;-66
2023/01/23 06:15:14;;;;;;;;;;;;;;;25.11;38.85;94927.19;4826881;29;9515;-66
2023/01/23 06:17:50;;;;;;;;;;;;;;;25.13;38.41;94916.44;4820496;29;9070;-66
2023/01/23 06:20:32;;;;;;;;;;;;;;;25.15;38.35;94917.44;4835603;29;7396;-65
2023/01/23 06:23:01;;;;;;;;;;;;;;;25.14;38.89;94917.94;4839442;29;9063;-65
2023/01/23 06:25:38;;;;;;;;;;;;;;;25.14;38.65;94912.44;4822444;29;7036;-66
2023/01/23 06:28:21;;;;;;;;;;;;;;;25.14;38.21;94915.19;4855931;29;7320;-66
2023/01/23 06:30:48;;;;;;;;;;;;;;;25.12;37.92;94917.69;4871709;28;9650;-64
2023/01/23 06:33:30;;;;;;;;;;;;;;;25.13;37.75;94927.44;4929566;28;8307;-65
2023/01/23 06:36:25;;;;;;;;;;;;;;;25.12;37.52;94934.22;4953188;28;7718;-65
2023/01/23 06:38:53;;;;;;;;;;;;;;;25.11;37.16;94947.22;4875739;29;9821;-64
2023/01/23 06:41:45;;;;;;;;;;;;;;;25.10;37.49;94953.94;4878072;29;7399;-65
2023/01/23 06:44:15;;;;;;;;;;;;;;;25.08;38.00;94950.94;4882938;29;7573;-64
2023/01/23 06:46:56;;;;;;;;;;;;;;;25.08;38.05;94955.69;4892122;29;7035;-64
2023/01/23 06:49:42;;;;;;;;;;;;;;;25.07;38.27;94943.19;4897290;29;9073;-64
2023/01/23 06:52:17;;;;;;;;;;;;;;;25.07;38.04;94945.94;4895314;29;7258;-65
2023/01/23 06:54:50;;;;;;;;;;;;;;;25.07;38.03;94940.44;4891854;29;7242;-64
2023/01/23 06:57:19;;;;;;;;;;;;;;;25.07;37.91;94940.44;4896508;29;9334;-65
2023/01/23 06:59:45;;;;;;;;;;;;;;;25.06;38.47;94939.66;4895947;29;7004;-64
2023/01/23 07:02:13;;;;;;;;;;;;;;;25.05;38.42;94945.69;4894012;29;9112;-65
2023/01/23 07:05:15;;;;;;;;;;;;;;;25.04;37.76;94946.91;4881269;29;7067;-64
2023/01/23 07:07:42;;;;;;;;;;;;;;;25.04;38.02;94938.66;4891838;29;8345;-65
2023/01/23 07:10:13;;;;;;;;;;;;;;;25.04;38.01;94944.16;4896203;29;9060;-65
2023/01/23 07:12:41;;;;;;;;;;;;;;;25.02;38.49;94941.16;4892875;29;9147;-65
2023/01/23 07:15:08;;;;;;;;;;;;;;;25.02;37.96;94947.41;4909334;28;9141;-65
2023/01/23 07:17:53;;;;;;;;;;;;;;;25.03;38.62;94948.94;4947171;28;8989;-65
2023/01/23 07:20:30;;;;;;;;;;;;;;;25.04;38.39;94946.91;4938309;28;8795;-65
2023/01/23 07:23:09;;;;;;;;;;;;;;;25.03;37.58;94954.44;4955674;28;7206;-65
2023/01/23 07:25:35;;;;;;;;;;;;;;;25.04;38.12;94957.91;4952882;28;9327;-65
2023/01/23 07:28:01;;;;;;;;;;;;;;;25.02;37.80;94957.66;4948947;28;9077;-65
2023/01/23 07:30:34;;;;;;;;;;;;;;;25.03;37.67;94962.69;4944546;28;7490;-65
2023/01/23 07:33:20;;;;;;;;;;;;;;;25.03;38.49;94970.94;4948405;28;8984;-65
2023/01/23 07:35:56;;;;;;;;;;;;;;;25.04;37.86;94971.69;4953447;28;9054;-65
2023/01/23 07:38:41;;;;;;;;;;;;;;;25.04;38.42;94971.69;4951184;28;7021;-65
2023/01/23 07:41:08;;;;;;;;;;;;;;;25.03;37.71;94976.47;4938089;28;8721;-64
2023/01/23 07:43:41;;;;;;;;;;;;;;;25.04;37.94;94977.19;4929962;28;9101;-65
2023/01/23 07:46:19;;;;;;;;;;;;;;;25.03;37.79;94981.19;4952966;28;9412;-64
2023/01/23 07:48:47;;;;;;;;;;;;;;;25.03;37.88;94979.22;4940173;28;7947;-64
2023/01/23 07:51:44;;;;;;;;;;;;;;;25.02;38.24;94994.19;4954881;28;8884;-64
2023/01/23 07:54:17;;;;;;;;;;;;;;;25.02;38.38;94977.69;4956313;28;8982;-65
2023/01/23 07:56:49;;;;;;;;;;;;;;;25.02;38.44;94976.94;4937230;28;7012;-66
2023/01/23 07:59:15;;;;;;;;;;;;;;;25.02;38.04;94977.69;4958156;28;7312;-66
2023/01/23 08:01:42;;;;;;;;;;;;;;;25.03;37.97;94973.69;4935997;28;8718;-65
2023/01/23 08:04:35;;;;;;;;;;;;;;;25.05;37.71;94973.19;4938311;28;9379;-66
2023/01/23 08:07:07;;;;;;;;;;;;;;;25.04;37.99;94971.69;4965148;28;8720;-66
2023/01/23 08:09:44;;;;;;;;;;;;;;;25.04;38.09;94974.44;4938330;28;9074;-66
2023/01/23 08:12:15;;;;;;;;;;;;;;;25.03;38.17;94979.22;4951727;28;7167;-65
2023/01/23 08:14:43;;;;;;;;;;;;;;;25.04;37.58;94971.69;4953307;29;7153;-65
2023/01/23 08:17:18;;;;;;;;;;;;;;;25.03;37.50;94959.19;4936487;29;7250;-65
2023/01/23 08:19:48;;;;;;;;;;;;;;;25.10;37.57;94958.72;4954629;28;7274;-65
2023/01/23 08:22:14;;;;;;;;;;;;;;;25.16;36.99;94962.25;4940124;29;7642;-66
2023/01/23 08:24:46;;;;;;;;;;;;;;;25.14;37.87;94959.22;4952832;29;7269;-65
2023/01/23 08:27:13;;;;;;;;;;;;;;;25.14;37.49;94953.72;4937779;29;9437;-66
2023/01/23 08:29:40;;;;;;;;;;;;;;;25.12;37.58;94958.97;4935761;29;7495;-66
2023/01/23 08:32:09;;;;;;;;;;;;;;;25.11;36.66;94960.22;4930154;29;7256;-66
2023/01/23 08:34:38;;;;;;;;;;;;;;;25.10;37.24;94964.22;4946447;29;7066;-66
2023/01/23 08:37:06;;;;;;;;;;;;;;;25.09;36.94;94955.22;4950962;29;7210;-65
2023/01/23 08:39:35;;;;;;;;;;;;;;;25.09;37.43;94968.22;4933676;29;8753;-65
2023/01/23 08:42:01;;;;;;;;;;;;;;;25.06;37.31;94960.94;4952187;28;9261;-65
2023/01/23 08:44:31;;;;;;;;;;;;;;;25.08;37.02;94969.44;4953666;28;7412;-66
2023/01/23 08:47:00;;;;;;;;;;;;;;;25.08;36.90;94958.44;4936421;28;7135;-65
2023/01/23 08:49:30;;;;;;;;;;;;;;;25.08;36.87;94961.19;4933452;28;7031;-66
2023/01/23 08:51:58;;;;;;;;;;;;;;;25.07;37.33;94957.69;4950248;28;8600;-65
2023/01/23 08:54:24;;;;;;;;;;;;;;;25.08;37.54;94958.44;4937415;28;8746;-65
2023/01/23 08:56:50;;;;;;;;;;;;;;;25.07;37.05;94959.69;4958138;28;7780;-66
2023/01/23 08:59:19;;;;;;;;;;;;;;;25.05;37.32;94953.94;4935903;28;7035;-65
2023/01/23 09:01:46;;;;;;;;;;;;;;;25.09;37.71;94957.19;4951712;28;7185;-66
2023/01/23 09:04:13;;;;;;;;;;;;;;;25.08;37.25;94950.19;4954775;28;9266;-66
2023/01/23 09:06:39;;;;;;;;;;;;;;;25.06;37.23;94958.94;4953160;28;8720;-66
2023/01/23 09:09:36;;;;;;;;;;;;;;;25.05;36.99;94962.94;4956798;28;7011;-66
2023/01/23 09:12:05;;;;;;;;;;;;;;;25.08;36.92;94961.19;4871786;29;8740;-66
2023/01/23 09:14:33;;;;;;;;;;;;;;;25.08;37.03;94955.69;4888224;29;9168;-66
2023/01/23 09:17:01;;;;;;;;;;;;;;;25.08;37.64;94966.69;4878072;29;9263;-65
2023/01/23 09:19:31;;;;;;;;;;;;;;;25.07;37.78;94965.19;4894279;29;7514;-66
2023/01/23 09:22:03;;;;;;;;;;;;;;;25.07;37.26;94962.44;4872298;29;7125;-66
2023/01/23 09:24:29;;;;;;;;;;;;;;;25.08;37.30;94974.94;4877530;29;7037;-66
2023/01/23 09:26:55;;;;;;;;;;;;;;;25.07;37.05;94967.94;4879385;29;9173;-67
2023/01/23 09:29:33;;;;;;;;;;;;;;;25.07;37.74;94973.47;4890339;29;9280;-66
2023/01/23 09:32:08;;;;;;;;;;;;;;;25.08;37.39;94972.19;4872866;29;9438;-66
2023/01/23 09:34:51;;;;;;;;;;;;;;;25.07;37.39;94974.22;4896766;29;9186;-66
2023/01/23 09:37:19;;;;;;;;;;;;;;;25.08;37.80;94966.69;4896280;29;8322;-66
2023/01/23 09:39:46;;;;;;;;;;;;;;;25.09;37.37;94971.72;4892860;29;7277;-66
2023/01/23 09:42:31;;;;;;;;;;;;;;;25.08;37.64;94961.19;4878480;29;9168;-66
2023/01/23 09:45:06;;;;;;;;;;;;;;;25.08;37.35;94966.69;4877840;29;8784;-66
2023/01/23 09:47:55;;;;;;;;;;;;;;;25.09;37.67;94957.19;4880724;29;9031;-66
2023/01/23 09:50:37;;;;;;;;;;;;;;;25.07;38.04;94951.44;4933405;28;7230;-66
2023/01/23 09:53:15;;;;;;;;;;;;;;;25.09;37.74;94965.47;4931489;28;9204;-66
2023/01/23 09:56:21;;;;;;;;;;;;;;;25.10;37.89;94958.72;4954384;28;7124;-65
2023/01/23 09:59:09;;;;;;;;;;;;;;;25.10;37.43;94958.72;4950854;28;9167;-65
2023/01/23 10:01:38;;;;;;;;;;;;;;;25.11;37.29;94957.47;4932404;28;7074;-66
2023/01/23 10:04:05;;;;;;;;;;;;;;;25.10;37.18;94964.22;4950913;28;7320;-65
2023/01/23 10:06:54;;;;;;;;;;;;;;;25.08;37.73;94967.44;4951194;28;7048;-66
2023/01/23 10:09:25;;;;;;;;;;;;;;;25.11;36.89;94966.47;4952188;28;7231;-66
2023/01/23 10:12:38;;;;;;;;;;;;;;;25.12;36.97;94953.47;4951065;28;9227;-66
2023/01/23 10:15:30;;;;;;;;;;;;;;;25.12;37.05;94950.72;4937227;28;7067;-65
2023/01/23 10:18:15;;;;;;;;;;;;;;;25.11;36.96;94943.69;4936179;28;8916;-65
2023/01/23 10:21:18;;;;;;;;;;;;;;;25.13;37.29;94946.72;4953792;28;7702;-65
2023/01/23 10:23:54;;;;;;;;;;;;;;;25.12;37.55;94942.47;4948956;28;7440;-65
2023/01/23 10:26:25;;;;;;;;;;;;;;;25.12;37.09;94942.47;4965589;28;8695;-65
2023/01/23 10:29:02;;;;;;;;;;;;;;;25.12;37.53;94939.72;4949987;28;9379;-65
2023/01/23 10:31:37;;;;;;;;;;;;;;;25.12;37.78;94940.44;4934895;28;7045;-65
2023/01/23 10:34:16;;;;;;;;;;;;;;;25.13;37.80;94927.44;4954303;28;7047;-66
2023/01/23 10:37:06;;;;;;;;;;;;;;;25.14;37.37;94924.19;4954578;28;8130;-65
2023/01/23 10:39:55;;;;;;;;;;;;;;;25.12;37.90;94925.94;4954290;28;7734;-66
2023/01/23 10:42:35;;;;;;;;;;;;;;;25.14;37.95;94928.97;4948056;28;9305;-66
2023/01/23 10:45:05;;;;;;;;;;;;;;;25.15;37.71;94916.69;4956416;28;9072;-65
2023/01/23 10:47:51;;;;;;;;;;;;;;;25.14;37.12;94926.19;4938560;28;9236;-65
2023/01/23 10:50:34;;;;;;;;;;;;;;;25.14;37.46;94912.44;4941471;28;7389;-66
2023/01/23 10:53:19;;;;;;;;;;;;;;;25.15;37.19;94913.94;4953550;28;7122;-66
2023/01/23 10:55:49;;;;;;;;;;;;;;;25.15;37.75;94911.94;4947994;28;7267;-67
2023/01/23 10:58:39;;;;;;;;;;;;;;;25.17;37.74;94914.19;4948139;28;7702;-66
2023/01/23 11:01:25;;;;;;;;;;;;;;;25.18;37.19;94910.19;4938816;28;8193;-65
2023/01/23 11:03:52;;;;;;;;;;;;;;;25.21;37.56;94898.19;4936126;28;7110;-66
2023/01/23 11:07:07;;;;;;;;;;;;;;;25.21;36.75;94898.19;4953470;28;9675;-66
2023/01/23 11:10:08;;;;;;;;;;;;;;;25.22;36.87;94886.69;4953514;28;9237;-66
2023/01/23 11:12:47;;;;;;;;;;;;;;;25.22;36.92;94889.44;4934201;28;6993;-65
2023/01/23 11:15:27;;;;;;;;;;;;;;;25.22;37.55;94880.44;4947014;28;8625;-66
2023/01/23 11:18:00;;;;;;;;;;;;;;;25.22;37.10;94883.94;4952448;28;7238;-66
2023/01/23 11:20:41;;;;;;;;;;;;;;;25.22;37.35;94883.19;4955849;28;8927;-66
2023/01/23 11:23:33;;;;;;;;;;;;;;;25.24;36.91;94877.94;4954166;28;8606;-66
2023/01/23 11:26:31;;;;;;;;;;;;;;;25.24;37.37;94880.69;4949761;28;9091;-66
2023/01/23 11:29:24;;;;;;;;;;;;;;;25.25;37.07;94871.19;4949507;28;7545;-66
2023/01/23 11:32:24;;;;;;;;;;;;;;;25.26;37.56;94869.91;4951414;28;8913;-66
2023/01/23 11:35:09;;;;;;;;;;;;;;;25.27;37.60;94869.41;4954963;28;7483;-66
2023/01/23 11:37:41;;;;;;;;;;;;;;;25.29;37.05;94860.69;4931587;28;9139;-63
2023/01/23 11:40:17;;;;;;;;;;;;;;;25.27;37.11;94858.41;4935070;28;9048;-65
2023/01/23 11:43:14;;;;;;;;;;;;;;;25.27;37.84;94857.66;4936157;28;8714;-65
2023/01/23 11:46:24;;;;;;;;;;;;;;;25.27;36.99;94857.66;4916956;29;7457;-65
2023/01/23 11:49:36;;;;;;;;;;;;;;;25.27;37.85;94847.38;4925630;29;7160;-65
2023/01/23 11:52:27;;;;;;;;;;;;;;;25.26;37.00;94839.63;4889539;29;8994;-66
2023/01/23 11:55:29;;;;;;;;;;;;;;;25.26;37.69;94851.41;4908447;29;7363;-65
2023/01/23 11:58:13;;;;;;;;;;;;;;;25.25;37.72;94838.16;4855914;29;9455;-65
2023/01/23 12:01:02;;;;;;;;;;;;;;;25.27;37.15;94841.16;4871727;29;8932;-65
2023/01/23 12:03:49;;;;;;;;;;;;;;;25.13;33.22;94842.09;4849720;29;9141;-65
2023/01/23 12:06:47;;;;;;;;;;;;;;;24.92;30.55;94849.81;4856641;29;9067;-65
2023/01/23 12:09:51;;;;;;;;;;;;;;;24.83;29.30;94841.03;4815875;29;7154;-65
2023/01/23 12:12:56;;;;;;;;;;;;;;;24.82;28.19;94842.25;4818679;29;9135;-65
2023/01/23 12:16:02;;;;;;;;;;;;;;;24.88;27.74;94834.78;4821039;29;9036;-66
2023/01/23 12:19:14;;;;;;;;;;;;;;;24.94;27.94;94830.06;4785712;29;7900;-67
2023/01/23 12:22:01;;;;;;;;;;;;;;;24.97;27.00;94826.31;4803578;29;8985;-66
2023/01/23 12:25:14;;;;;;;;;;;;;;;24.99;27.30;94821.06;4826271;29;7299;-66
2023/01/23 12:27:45;;;;;;;;;;;;;;;25.00;27.70;94819.81;4832033;29;7019;-66
2023/01/23 12:30:53;;;;;;;;;;;;;;;25.03;28.56;94821.56;4822908;29;7244;-66
2023/01/23 12:33:22;;;;;;;;;;;;;;;25.03;28.76;94810.56;4840071;29;8662;-65
2023/01/23 12:36:31;;;;;;;;;;;;;;;25.04;29.54;94806.56;4865459;29;9646;-65
2023/01/23 12:39:27;;;;;;;;;;;;;;;25.06;29.00;94809.56;4799933;29;9453;-65
2023/01/23 12:42:18;;;;;;;;;;;;;;;25.06;29.56;94815.06;4809283;29;9032;-65
2023/01/23 12:44:48;;;;;;;;;;;;;;;25.04;28.85;94821.06;4793734;29;9038;-65
2023/01/23 12:47:30;;;;;;;;;;;;;;;25.04;30.12;94812.06;4869814;29;8738;-64
2023/01/23 12:50:04;;;;;;;;;;;;;;;25.06;29.97;94809.56;4858133;29;7308;-65
2023/01/23 12:52:30;;;;;;;;;;;;;;;25.08;30.01;94807.81;4861227;29;8630;-66
2023/01/23 12:55:11;;;;;;;;;;;;;;;25.07;30.31;94800.81;4870848;29;8657;-66
2023/01/23 12:57:38;;;;;;;;;;;;;;;25.05;30.42;94810.81;4855791;29;9456;-66
2023/01/23 13:00:22;;;;;;;;;;;;;;;25.07;30.96;94805.56;4870664;29;8997;-65
2023/01/23 13:03:27;;;;;;;;;;;;;;;25.07;31.20;94811.06;4875763;29;7725;-65
2023/01/23 13:05:58;;;;;;;;;;;;;;;25.08;31.14;94804.31;4870693;29;7263;-65
2023/01/23 13:08:30;;;;;;;;;;;;;;;25.07;30.65;94805.56;4874207;29;9016;-65
2023/01/23 13:14:00;;;;;;;;;;;;;;;25.06;31.50;94809.56;4874931;29;9031;-65
2023/01/23 13:16:34;;;;;;;;;;;;;;;25.06;31.28;94813.06;4912295;29;7674;-65
2023/01/23 13:22:28;;;;;;;;;;;;;;;25.06;32.14;94810.31;4948022;29;7035;-66
2023/01/23 13:25:12;;;;;;;;;;;;;;;25.08;31.57;94805.06;4932926;29;7149;-65
2023/01/23 13:27:51;;;;;;;;;;;;;;;25.08;31.44;94823.56;4936477;28;7476;-66
2023/01/23 13:30:30;;;;;;;;;;;;;;;25.07;31.83;94820.09;4960708;28;9205;-66
2023/01/23 13:33:05;;;;;;;;;;;;;;;25.07;32.37;94819.31;4939422;28;9466;-65
2023/01/23 13:36:19;;;;;;;;;;;;;;;25.07;32.11;94817.34;4939993;28;7851;-66
2023/01/23 13:39:09;;;;;;;;;;;;;;;25.07;32.18;94814.59;4957477;28;9456;-66
2023/01/23 13:41:36;;;;;;;;;;;;;;;25.05;32.63;94821.81;4915343;29;7535;-66
2023/01/23 13:44:18;;;;;;;;;;;;;;;25.04;32.73;94821.06;4910497;29;9123;-67
2023/01/23 13:46:53;;;;;;;;;;;;;;;25.03;32.83;94814.06;4904389;29;9178;-65
2023/01/23 13:49:54;;;;;;;;;;;;;;;25.03;32.27;94813.31;4913080;29;8113;-66
2023/01/23 13:58:49;;;;;;;;;;;;;;;25.01;33.19;94810.31;4916186;29;8960;-66
2023/01/23 14:07:03;;;;;;;;;;;;;;;25.02;33.75;94820.06;4911619;29;7477;-66
2023/01/23 14:09:31;;;;;;;;;;;;;;;25.02;33.13;94811.81;4903442;29;9100;-66
2023/01/23 14:11:57;;;;;;;;;;;;;;;25.02;33.56;94809.06;4892834;29;9038;-65
2023/01/23 14:17:14;;;;;;;;;;;;;;;25.02;33.13;94806.28;4912177;29;9772;-65
2023/01/23 14:20:05;;;;;;;;;;;;;;;25.03;33.75;94807.81;4930055;28;9523;-66
2023/01/23 14:22:52;;;;;;;;;;;;;;;25.03;33.42;94794.81;4947572;28;7255;-66